sensor_id;sensor_type;location;lat;lon;timestamp;temperature;humidity
11836;DHT22;5977;51.972;7.640;2024-02-23T00:02:42;18.80;76.30
11836;DHT22;5977;51.972;7.640;2024-02-23T00:09:34;18.90;77.30
11836;DHT22;5977;51.972;7.640;2024-02-23T00:20:50;18.90;77.40
11836;DHT22;5977;51.972;7.640;2024-02-23T00:32:08;18.70;80.30
11836;DHT22;5977;51.972;7.640;2024-02-23T00:47:44;18.10;83.60
11836;DHT22;5977;51.972;7.640;2024-02-23T01:02:55;18.40;80.90
11836;DHT22;5977;51.972;7.640;2024-02-23T01:14:15;18.20;81.90
11836;DHT22;5977;51.972;7.640;2024-02-23T01:21:02;18.30;86.20
11836;DHT22;5977;51.972;7.640;2024-02-23T01:36:50;18.30;84.10
11836;DHT22;5977;51.972;7.640;2024-02-23T01:52:47;17.80;85.60
11836;DHT22;5977;51.972;7.640;2024-02-23T02:08:34;17.90;84.10
11836;DHT22;5977;51.972;7.640;2024-02-23T02:15:28;18.20;83.20
11836;DHT22;5977;51.972;7.640;2024-02-23T02:22:14;18.20;83.80
11836;DHT22;5977;51.972;7.640;2024-02-23T02:46:11;17.60;83.60
11836;DHT22;5977;51.972;7.640;2024-02-23T02:50:43;17.70;85.00
11836;DHT22;5977;51.972;7.640;2024-02-23T03:06:29;17.90;82.90
11836;DHT22;5977;51.972;7.640;2024-02-23T03:17:34;17.90;80.50
11836;DHT22;5977;51.972;7.640;2024-02-23T03:24:28;17.80;83.50
11836;DHT22;5977;51.972;7.640;2024-02-23T03:31:14;17.90;82.40
11836;DHT22;5977;51.972;7.640;2024-02-23T03:38:04;17.90;82.20
11836;DHT22;5977;51.972;7.640;2024-02-23T03:49:30;17.80;83.50
11836;DHT22;5977;51.972;7.640;2024-02-23T04:27:00;17.50;79.90
11836;DHT22;5977;51.972;7.640;2024-02-23T04:38:11;17.50;81.00
11836;DHT22;5977;51.972;7.640;2024-02-23T04:53:48;17.50;80.10
11836;DHT22;5977;51.972;7.640;2024-02-23T05:05:06;17.60;79.30
11836;DHT22;5977;51.972;7.640;2024-02-23T05:12:33;17.30;81.40
11836;DHT22;5977;51.972;7.640;2024-02-23T05:24:28;17.40;81.40
11836;DHT22;5977;51.972;7.640;2024-02-23T05:31:16;17.20;80.30
11836;DHT22;5977;51.972;7.640;2024-02-23T05:51:58;17.60;81.30
11836;DHT22;5977;51.972;7.640;2024-02-23T06:16:30;17.30;81.60
11836;DHT22;5977;51.972;7.640;2024-02-23T07:39:04;14.90;79.00
11836;DHT22;5977;51.972;7.640;2024-02-23T07:49:38;15.30;75.30
11836;DHT22;5977;51.972;7.640;2024-02-23T07:52:07;15.20;73.90
11836;DHT22;5977;51.972;7.640;2024-02-23T07:54:36;15.20;75.20
11836;DHT22;5977;51.972;7.640;2024-02-23T07:57:04;15.30;73.70
11836;DHT22;5977;51.972;7.640;2024-02-23T07:59:32;15.30;73.50
11836;DHT22;5977;51.972;7.640;2024-02-23T08:02:00;15.50;74.20
11836;DHT22;5977;51.972;7.640;2024-02-23T08:04:28;15.60;74.20
11836;DHT22;5977;51.972;7.640;2024-02-23T08:06:56;16.00;73.80
11836;DHT22;5977;51.972;7.640;2024-02-23T08:09:24;16.90;73.20
11836;DHT22;5977;51.972;7.640;2024-02-23T08:11:53;17.40;69.40
11836;DHT22;5977;51.972;7.640;2024-02-23T08:14:21;17.50;68.60
11836;DHT22;5977;51.972;7.640;2024-02-23T08:16:50;18.10;71.20
11836;DHT22;5977;51.972;7.640;2024-02-23T08:19:18;17.80;69.50
11836;DHT22;5977;51.972;7.640;2024-02-23T08:21:46;17.70;69.30
11836;DHT22;5977;51.972;7.640;2024-02-23T08:24:14;17.60;71.40
11836;DHT22;5977;51.972;7.640;2024-02-23T08:26:41;17.50;71.40
11836;DHT22;5977;51.972;7.640;2024-02-23T08:29:11;17.40;69.30
11836;DHT22;5977;51.972;7.640;2024-02-23T08:31:39;17.10;71.30
11836;DHT22;5977;51.972;7.640;2024-02-23T08:34:08;17.10;72.20
11836;DHT22;5977;51.972;7.640;2024-02-23T08:36:37;17.20;71.70
11836;DHT22;5977;51.972;7.640;2024-02-23T08:39:05;17.10;72.20
11836;DHT22;5977;51.972;7.640;2024-02-23T08:41:33;17.00;71.40
11836;DHT22;5977;51.972;7.640;2024-02-23T08:44:01;16.70;71.30
11836;DHT22;5977;51.972;7.640;2024-02-23T08:46:31;16.80;73.00
11836;DHT22;5977;51.972;7.640;2024-02-23T08:48:58;16.90;72.30
11836;DHT22;5977;51.972;7.640;2024-02-23T08:51:27;16.90;72.00
11836;DHT22;5977;51.972;7.640;2024-02-23T08:53:55;16.90;71.60
11836;DHT22;5977;51.972;7.640;2024-02-23T08:56:26;16.80;71.30
11836;DHT22;5977;51.972;7.640;2024-02-23T08:58:54;16.70;71.50
11836;DHT22;5977;51.972;7.640;2024-02-23T09:01:22;16.80;71.80
11836;DHT22;5977;51.972;7.640;2024-02-23T09:03:52;17.00;73.80
11836;DHT22;5977;51.972;7.640;2024-02-23T09:06:20;16.90;71.10
11836;DHT22;5977;51.972;7.640;2024-02-23T09:08:48;16.90;71.00
11836;DHT22;5977;51.972;7.640;2024-02-23T09:11:16;17.10;71.40
11836;DHT22;5977;51.972;7.640;2024-02-23T09:13:44;17.00;70.90
11836;DHT22;5977;51.972;7.640;2024-02-23T09:16:11;17.00;71.60
11836;DHT22;5977;51.972;7.640;2024-02-23T09:18:41;16.80;71.50
11836;DHT22;5977;51.972;7.640;2024-02-23T09:21:10;17.00;71.00
11836;DHT22;5977;51.972;7.640;2024-02-23T09:23:38;16.90;70.30
11836;DHT22;5977;51.972;7.640;2024-02-23T09:26:09;17.10;70.90
11836;DHT22;5977;51.972;7.640;2024-02-23T09:28:38;17.00;71.10
11836;DHT22;5977;51.972;7.640;2024-02-23T09:31:07;16.80;69.90
11836;DHT22;5977;51.972;7.640;2024-02-23T09:33:35;16.80;69.00
11836;DHT22;5977;51.972;7.640;2024-02-23T09:36:04;17.00;71.70
11836;DHT22;5977;51.972;7.640;2024-02-23T09:38:33;17.00;69.30
11836;DHT22;5977;51.972;7.640;2024-02-23T09:41:01;16.90;70.10
11836;DHT22;5977;51.972;7.640;2024-02-23T09:43:30;16.90;70.40
11836;DHT22;5977;51.972;7.640;2024-02-23T09:45:59;17.10;70.50
11836;DHT22;5977;51.972;7.640;2024-02-23T09:48:28;16.40;69.40
11836;DHT22;5977;51.972;7.640;2024-02-23T09:50:57;15.90;71.50
11836;DHT22;5977;51.972;7.640;2024-02-23T09:53:26;16.20;70.60
11836;DHT22;5977;51.972;7.640;2024-02-23T09:55:58;16.00;69.50
11836;DHT22;5977;51.972;7.640;2024-02-23T09:58:27;15.80;68.60
11836;DHT22;5977;51.972;7.640;2024-02-23T10:00:57;15.90;70.00
11836;DHT22;5977;51.972;7.640;2024-02-23T10:03:28;15.90;69.40
11836;DHT22;5977;51.972;7.640;2024-02-23T10:05:57;15.80;69.60
11836;DHT22;5977;51.972;7.640;2024-02-23T10:08:26;16.10;68.40
11836;DHT22;5977;51.972;7.640;2024-02-23T10:10:56;16.00;66.20
11836;DHT22;5977;51.972;7.640;2024-02-23T10:13:24;16.10;68.10
11836;DHT22;5977;51.972;7.640;2024-02-23T10:15:52;15.90;65.30
11836;DHT22;5977;51.972;7.640;2024-02-23T10:18:40;15.80;68.00
11836;DHT22;5977;51.972;7.640;2024-02-23T10:21:08;15.70;67.70
11836;DHT22;5977;51.972;7.640;2024-02-23T10:23:36;15.40;66.40
11836;DHT22;5977;51.972;7.640;2024-02-23T10:26:06;15.60;67.30
11836;DHT22;5977;51.972;7.640;2024-02-23T10:28:35;15.90;65.80
11836;DHT22;5977;51.972;7.640;2024-02-23T10:31:05;15.90;67.70
11836;DHT22;5977;51.972;7.640;2024-02-23T10:33:38;15.90;65.50
11836;DHT22;5977;51.972;7.640;2024-02-23T10:36:07;15.90;66.80
11836;DHT22;5977;51.972;7.640;2024-02-23T10:38:37;15.90;67.40
11836;DHT22;5977;51.972;7.640;2024-02-23T10:41:10;15.90;66.50
11836;DHT22;5977;51.972;7.640;2024-02-23T10:43:41;15.80;64.90
11836;DHT22;5977;51.972;7.640;2024-02-23T10:46:12;15.60;65.80
11836;DHT22;5977;51.972;7.640;2024-02-23T10:48:41;15.70;66.80
11836;DHT22;5977;51.972;7.640;2024-02-23T10:51:10;15.50;67.90
11836;DHT22;5977;51.972;7.640;2024-02-23T10:53:44;15.80;66.60
11836;DHT22;5977;51.972;7.640;2024-02-23T10:56:14;16.00;66.80
11836;DHT22;5977;51.972;7.640;2024-02-23T10:58:42;15.90;66.60
11836;DHT22;5977;51.972;7.640;2024-02-23T11:01:10;15.70;65.60
11836;DHT22;5977;51.972;7.640;2024-02-23T11:03:42;15.70;66.10
11836;DHT22;5977;51.972;7.640;2024-02-23T11:06:15;15.90;66.00
11836;DHT22;5977;51.972;7.640;2024-02-23T11:08:48;15.70;65.90
11836;DHT22;5977;51.972;7.640;2024-02-23T11:11:18;15.80;65.40
11836;DHT22;5977;51.972;7.640;2024-02-23T11:13:47;15.80;66.40
11836;DHT22;5977;51.972;7.640;2024-02-23T11:16:22;15.90;65.00
11836;DHT22;5977;51.972;7.640;2024-02-23T11:19:03;15.80;65.10
11836;DHT22;5977;51.972;7.640;2024-02-23T11:21:34;15.60;63.80
11836;DHT22;5977;51.972;7.640;2024-02-23T11:24:07;15.70;64.50
11836;DHT22;5977;51.972;7.640;2024-02-23T11:26:38;15.60;65.00
11836;DHT22;5977;51.972;7.640;2024-02-23T11:29:12;15.60;64.90
11836;DHT22;5977;51.972;7.640;2024-02-23T11:31:46;15.80;63.50
11836;DHT22;5977;51.972;7.640;2024-02-23T11:34:21;15.60;64.90
11836;DHT22;5977;51.972;7.640;2024-02-23T11:36:51;15.60;64.50
11836;DHT22;5977;51.972;7.640;2024-02-23T11:39:19;15.50;64.40
11836;DHT22;5977;51.972;7.640;2024-02-23T11:41:50;15.40;63.70
11836;DHT22;5977;51.972;7.640;2024-02-23T11:44:18;15.00;61.70
11836;DHT22;5977;51.972;7.640;2024-02-23T11:46:46;14.40;64.20
11836;DHT22;5977;51.972;7.640;2024-02-23T11:49:14;14.10;63.60
11836;DHT22;5977;51.972;7.640;2024-02-23T11:51:43;14.10;65.50
11836;DHT22;5977;51.972;7.640;2024-02-23T11:54:11;14.80;68.90
11836;DHT22;5977;51.972;7.640;2024-02-23T11:56:40;15.40;67.00
11836;DHT22;5977;51.972;7.640;2024-02-23T11:59:10;15.70;65.30
11836;DHT22;5977;51.972;7.640;2024-02-23T12:01:38;16.10;66.60
11836;DHT22;5977;51.972;7.640;2024-02-23T12:04:06;15.90;65.00
11836;DHT22;5977;51.972;7.640;2024-02-23T12:06:34;15.80;64.90
11836;DHT22;5977;51.972;7.640;2024-02-23T12:09:03;15.90;65.40
11836;DHT22;5977;51.972;7.640;2024-02-23T12:11:31;16.10;65.20
11836;DHT22;5977;51.972;7.640;2024-02-23T12:14:00;15.90;63.60
11836;DHT22;5977;51.972;7.640;2024-02-23T12:16:30;16.10;64.10
11836;DHT22;5977;51.972;7.640;2024-02-23T12:19:01;16.00;64.20
11836;DHT22;5977;51.972;7.640;2024-02-23T12:21:29;15.90;63.10
11836;DHT22;5977;51.972;7.640;2024-02-23T12:23:57;15.90;64.50
11836;DHT22;5977;51.972;7.640;2024-02-23T12:26:25;15.80;64.20
11836;DHT22;5977;51.972;7.640;2024-02-23T12:29:00;15.90;64.30
11836;DHT22;5977;51.972;7.640;2024-02-23T12:31:31;16.00;63.00
11836;DHT22;5977;51.972;7.640;2024-02-23T12:33:59;16.00;65.00
11836;DHT22;5977;51.972;7.640;2024-02-23T12:36:28;16.10;63.70
11836;DHT22;5977;51.972;7.640;2024-02-23T12:38:57;16.10;62.20
11836;DHT22;5977;51.972;7.640;2024-02-23T12:41:25;16.10;63.30
11836;DHT22;5977;51.972;7.640;2024-02-23T12:43:53;16.10;63.50
11836;DHT22;5977;51.972;7.640;2024-02-23T12:46:21;16.00;61.60
11836;DHT22;5977;51.972;7.640;2024-02-23T12:48:51;15.90;62.00
11836;DHT22;5977;51.972;7.640;2024-02-23T12:51:25;15.80;63.30
11836;DHT22;5977;51.972;7.640;2024-02-23T12:53:53;15.80;62.80
11836;DHT22;5977;51.972;7.640;2024-02-23T12:56:21;15.90;63.50
11836;DHT22;5977;51.972;7.640;2024-02-23T12:58:49;15.90;62.70
11836;DHT22;5977;51.972;7.640;2024-02-23T13:01:17;15.90;63.50
11836;DHT22;5977;51.972;7.640;2024-02-23T13:03:45;16.00;64.80
11836;DHT22;5977;51.972;7.640;2024-02-23T13:06:14;15.90;64.10
11836;DHT22;5977;51.972;7.640;2024-02-23T13:08:42;16.10;64.70
11836;DHT22;5977;51.972;7.640;2024-02-23T13:11:10;16.20;64.30
11836;DHT22;5977;51.972;7.640;2024-02-23T13:13:38;16.10;63.80
11836;DHT22;5977;51.972;7.640;2024-02-23T13:16:10;16.10;64.30
11836;DHT22;5977;51.972;7.640;2024-02-23T13:18:39;16.00;64.40
11836;DHT22;5977;51.972;7.640;2024-02-23T13:21:07;16.00;63.10
11836;DHT22;5977;51.972;7.640;2024-02-23T13:23:36;15.90;63.20
11836;DHT22;5977;51.972;7.640;2024-02-23T13:26:04;15.70;64.40
11836;DHT22;5977;51.972;7.640;2024-02-23T13:28:35;15.60;64.80
11836;DHT22;5977;51.972;7.640;2024-02-23T13:31:03;15.90;64.90
11836;DHT22;5977;51.972;7.640;2024-02-23T13:33:31;15.90;64.70
11836;DHT22;5977;51.972;7.640;2024-02-23T13:35:59;16.20;64.50
11836;DHT22;5977;51.972;7.640;2024-02-23T13:38:27;15.90;63.70
11836;DHT22;5977;51.972;7.640;2024-02-23T13:40:56;15.80;64.10
11836;DHT22;5977;51.972;7.640;2024-02-23T13:43:24;15.60;64.30
11836;DHT22;5977;51.972;7.640;2024-02-23T13:45:52;15.80;64.90
11836;DHT22;5977;51.972;7.640;2024-02-23T13:48:21;15.80;64.40
11836;DHT22;5977;51.972;7.640;2024-02-23T13:50:49;15.90;64.20
11836;DHT22;5977;51.972;7.640;2024-02-23T13:53:17;15.80;63.90
11836;DHT22;5977;51.972;7.640;2024-02-23T13:55:45;16.00;64.40
11836;DHT22;5977;51.972;7.640;2024-02-23T13:58:14;15.70;64.80
11836;DHT22;5977;51.972;7.640;2024-02-23T14:00:43;15.90;65.80
11836;DHT22;5977;51.972;7.640;2024-02-23T14:03:16;15.90;65.40
11836;DHT22;5977;51.972;7.640;2024-02-23T14:05:45;15.80;67.00
11836;DHT22;5977;51.972;7.640;2024-02-23T14:08:14;16.10;65.90
11836;DHT22;5977;51.972;7.640;2024-02-23T14:10:42;15.90;65.60
11836;DHT22;5977;51.972;7.640;2024-02-23T14:13:10;15.90;66.00
11836;DHT22;5977;51.972;7.640;2024-02-23T14:15:40;15.80;66.70
11836;DHT22;5977;51.972;7.640;2024-02-23T14:18:08;16.00;66.20
11836;DHT22;5977;51.972;7.640;2024-02-23T14:20:36;16.00;65.40
11836;DHT22;5977;51.972;7.640;2024-02-23T14:23:04;16.00;67.00
11836;DHT22;5977;51.972;7.640;2024-02-23T14:25:32;16.00;67.00
11836;DHT22;5977;51.972;7.640;2024-02-23T14:28:00;15.90;67.80
11836;DHT22;5977;51.972;7.640;2024-02-23T14:30:28;15.90;68.10
11836;DHT22;5977;51.972;7.640;2024-02-23T14:32:57;15.90;68.10
11836;DHT22;5977;51.972;7.640;2024-02-23T14:35:25;15.90;68.00
11836;DHT22;5977;51.972;7.640;2024-02-23T14:37:53;15.70;68.30
11836;DHT22;5977;51.972;7.640;2024-02-23T14:40:21;15.70;69.20
11836;DHT22;5977;51.972;7.640;2024-02-23T14:42:49;15.60;68.90
11836;DHT22;5977;51.972;7.640;2024-02-23T14:45:17;15.70;68.70
11836;DHT22;5977;51.972;7.640;2024-02-23T14:47:45;15.70;69.70
11836;DHT22;5977;51.972;7.640;2024-02-23T14:50:15;15.60;69.30
11836;DHT22;5977;51.972;7.640;2024-02-23T14:52:43;17.20;70.00
11836;DHT22;5977;51.972;7.640;2024-02-23T14:55:11;18.00;69.00
11836;DHT22;5977;51.972;7.640;2024-02-23T14:57:40;18.70;67.70
11836;DHT22;5977;51.972;7.640;2024-02-23T15:00:09;19.10;66.60
11836;DHT22;5977;51.972;7.640;2024-02-23T15:02:37;18.90;64.60
11836;DHT22;5977;51.972;7.640;2024-02-23T15:05:06;19.20;65.00
11836;DHT22;5977;51.972;7.640;2024-02-23T15:07:37;19.10;64.80
11836;DHT22;5977;51.972;7.640;2024-02-23T15:10:05;19.00;65.20
11836;DHT22;5977;51.972;7.640;2024-02-23T15:12:35;19.00;66.10
11836;DHT22;5977;51.972;7.640;2024-02-23T15:15:04;19.20;65.80
11836;DHT22;5977;51.972;7.640;2024-02-23T15:17:33;19.20;64.30
11836;DHT22;5977;51.972;7.640;2024-02-23T15:20:02;19.30;64.90
11836;DHT22;5977;51.972;7.640;2024-02-23T15:22:30;19.00;64.40
11836;DHT22;5977;51.972;7.640;2024-02-23T15:25:01;19.10;66.40
11836;DHT22;5977;51.972;7.640;2024-02-23T15:27:30;19.30;67.20
11836;DHT22;5977;51.972;7.640;2024-02-23T15:29:58;19.80;66.70
11836;DHT22;5977;51.972;7.640;2024-02-23T15:32:26;19.60;65.70
11836;DHT22;5977;51.972;7.640;2024-02-23T15:34:54;19.50;65.10
11836;DHT22;5977;51.972;7.640;2024-02-23T15:37:22;19.40;64.80
11836;DHT22;5977;51.972;7.640;2024-02-23T15:39:50;19.70;66.40
11836;DHT22;5977;51.972;7.640;2024-02-23T15:42:20;19.60;65.10
11836;DHT22;5977;51.972;7.640;2024-02-23T15:44:48;20.00;67.90
11836;DHT22;5977;51.972;7.640;2024-02-23T15:47:16;20.20;68.30
11836;DHT22;5977;51.972;7.640;2024-02-23T15:49:44;20.20;67.80
11836;DHT22;5977;51.972;7.640;2024-02-23T15:52:32;19.90;66.20
11836;DHT22;5977;51.972;7.640;2024-02-23T15:55:00;19.60;67.20
11836;DHT22;5977;51.972;7.640;2024-02-23T15:57:29;19.50;68.90
11836;DHT22;5977;51.972;7.640;2024-02-23T15:59:57;19.60;68.00
11836;DHT22;5977;51.972;7.640;2024-02-23T16:02:30;19.50;68.50
11836;DHT22;5977;51.972;7.640;2024-02-23T16:04:58;19.80;71.00
11836;DHT22;5977;51.972;7.640;2024-02-23T16:07:26;19.60;67.10
11836;DHT22;5977;51.972;7.640;2024-02-23T16:09:54;19.60;69.40
11836;DHT22;5977;51.972;7.640;2024-02-23T16:12:22;19.30;67.90
11836;DHT22;5977;51.972;7.640;2024-02-23T16:14:51;19.30;68.50
11836;DHT22;5977;51.972;7.640;2024-02-23T16:17:20;19.40;68.00
11836;DHT22;5977;51.972;7.640;2024-02-23T16:19:48;19.20;68.90
11836;DHT22;5977;51.972;7.640;2024-02-23T16:22:16;19.10;68.40
11836;DHT22;5977;51.972;7.640;2024-02-23T16:24:46;19.10;69.10
11836;DHT22;5977;51.972;7.640;2024-02-23T16:27:14;19.20;69.80
11836;DHT22;5977;51.972;7.640;2024-02-23T16:29:42;18.70;67.70
11836;DHT22;5977;51.972;7.640;2024-02-23T16:32:11;18.60;67.90
11836;DHT22;5977;51.972;7.640;2024-02-23T16:34:40;18.60;67.50
11836;DHT22;5977;51.972;7.640;2024-02-23T16:37:08;17.70;68.30
11836;DHT22;5977;51.972;7.640;2024-02-23T16:39:36;16.70;70.10
11836;DHT22;5977;51.972;7.640;2024-02-23T16:42:04;16.60;71.00
11836;DHT22;5977;51.972;7.640;2024-02-23T16:44:33;16.40;70.40
11836;DHT22;5977;51.972;7.640;2024-02-23T16:47:02;16.40;70.30
11836;DHT22;5977;51.972;7.640;2024-02-23T16:49:32;16.10;69.30
11836;DHT22;5977;51.972;7.640;2024-02-23T16:52:00;15.90;70.70
11836;DHT22;5977;51.972;7.640;2024-02-23T16:54:28;15.70;72.00
11836;DHT22;5977;51.972;7.640;2024-02-23T16:56:56;15.50;74.70
11836;DHT22;5977;51.972;7.640;2024-02-23T16:59:24;15.60;75.10
11836;DHT22;5977;51.972;7.640;2024-02-23T17:01:52;15.70;73.50
11836;DHT22;5977;51.972;7.640;2024-02-23T17:04:23;15.70;74.40
11836;DHT22;5977;51.972;7.640;2024-02-23T17:06:53;15.80;73.30
11836;DHT22;5977;51.972;7.640;2024-02-23T17:09:22;15.70;71.30
11836;DHT22;5977;51.972;7.640;2024-02-23T17:11:50;15.70;72.50
11836;DHT22;5977;51.972;7.640;2024-02-23T17:14:18;15.70;72.20
11836;DHT22;5977;51.972;7.640;2024-02-23T17:16:46;15.60;71.60
11836;DHT22;5977;51.972;7.640;2024-02-23T17:19:14;15.60;72.70
11836;DHT22;5977;51.972;7.640;2024-02-23T17:21:42;15.50;72.80
11836;DHT22;5977;51.972;7.640;2024-02-23T17:24:12;15.50;73.30
11836;DHT22;5977;51.972;7.640;2024-02-23T17:26:40;15.30;73.70
11836;DHT22;5977;51.972;7.640;2024-02-23T17:29:08;15.20;73.60
11836;DHT22;5977;51.972;7.640;2024-02-23T17:31:38;15.20;74.40
11836;DHT22;5977;51.972;7.640;2024-02-23T17:34:06;15.30;74.10
11836;DHT22;5977;51.972;7.640;2024-02-23T17:36:35;15.20;74.00
11836;DHT22;5977;51.972;7.640;2024-02-23T17:39:09;15.10;74.50
11836;DHT22;5977;51.972;7.640;2024-02-23T17:41:39;15.30;74.10
11836;DHT22;5977;51.972;7.640;2024-02-23T17:44:07;15.30;74.20
11836;DHT22;5977;51.972;7.640;2024-02-23T17:46:35;15.30;73.80
11836;DHT22;5977;51.972;7.640;2024-02-23T17:49:03;15.20;74.20
11836;DHT22;5977;51.972;7.640;2024-02-23T17:51:33;15.30;74.30
11836;DHT22;5977;51.972;7.640;2024-02-23T17:54:00;15.60;74.50
11836;DHT22;5977;51.972;7.640;2024-02-23T17:56:28;15.80;74.30
11836;DHT22;5977;51.972;7.640;2024-02-23T17:58:57;15.90;73.80
11836;DHT22;5977;51.972;7.640;2024-02-23T18:01:25;15.90;73.70
11836;DHT22;5977;51.972;7.640;2024-02-23T18:03:53;16.10;73.60
11836;DHT22;5977;51.972;7.640;2024-02-23T18:06:21;16.20;73.70
11836;DHT22;5977;51.972;7.640;2024-02-23T18:08:50;16.30;72.90
11836;DHT22;5977;51.972;7.640;2024-02-23T18:11:19;16.10;73.80
11836;DHT22;5977;51.972;7.640;2024-02-23T18:13:47;16.10;73.80
11836;DHT22;5977;51.972;7.640;2024-02-23T18:16:17;16.20;74.20
11836;DHT22;5977;51.972;7.640;2024-02-23T18:18:46;16.30;74.50
11836;DHT22;5977;51.972;7.640;2024-02-23T18:21:14;16.50;74.10
11836;DHT22;5977;51.972;7.640;2024-02-23T18:23:43;16.50;73.80
11836;DHT22;5977;51.972;7.640;2024-02-23T18:26:12;16.40;72.90
11836;DHT22;5977;51.972;7.640;2024-02-23T18:28:41;16.20;73.80
11836;DHT22;5977;51.972;7.640;2024-02-23T18:31:09;16.30;73.80
11836;DHT22;5977;51.972;7.640;2024-02-23T18:33:38;16.50;74.10
11836;DHT22;5977;51.972;7.640;2024-02-23T18:36:06;16.50;73.90
11836;DHT22;5977;51.972;7.640;2024-02-23T18:38:40;16.50;74.00
11836;DHT22;5977;51.972;7.640;2024-02-23T18:41:08;16.50;73.80
11836;DHT22;5977;51.972;7.640;2024-02-23T18:43:36;16.50;73.50
11836;DHT22;5977;51.972;7.640;2024-02-23T18:46:06;16.50;74.20
11836;DHT22;5977;51.972;7.640;2024-02-23T18:48:35;16.50;73.80
11836;DHT22;5977;51.972;7.640;2024-02-23T18:51:04;16.50;73.50
11836;DHT22;5977;51.972;7.640;2024-02-23T18:53:33;16.50;73.80
11836;DHT22;5977;51.972;7.640;2024-02-23T18:56:01;16.50;75.20
11836;DHT22;5977;51.972;7.640;2024-02-23T18:58:32;16.70;75.30
11836;DHT22;5977;51.972;7.640;2024-02-23T19:01:00;16.60;75.30
11836;DHT22;5977;51.972;7.640;2024-02-23T19:03:28;16.60;74.70
11836;DHT22;5977;51.972;7.640;2024-02-23T19:05:56;16.60;74.80
11836;DHT22;5977;51.972;7.640;2024-02-23T19:08:25;16.60;74.80
11836;DHT22;5977;51.972;7.640;2024-02-23T19:10:54;16.60;75.00
11836;DHT22;5977;51.972;7.640;2024-02-23T19:13:22;16.60;74.90
11836;DHT22;5977;51.972;7.640;2024-02-23T19:15:50;16.60;74.90
11836;DHT22;5977;51.972;7.640;2024-02-23T19:18:18;16.70;75.00
11836;DHT22;5977;51.972;7.640;2024-02-23T19:20:47;16.60;74.60
11836;DHT22;5977;51.972;7.640;2024-02-23T19:23:15;16.50;74.10
11836;DHT22;5977;51.972;7.640;2024-02-23T19:25:44;16.50;74.30
11836;DHT22;5977;51.972;7.640;2024-02-23T19:28:12;16.50;74.10
11836;DHT22;5977;51.972;7.640;2024-02-23T19:30:40;16.60;74.20
11836;DHT22;5977;51.972;7.640;2024-02-23T19:33:10;16.60;74.00
11836;DHT22;5977;51.972;7.640;2024-02-23T19:35:38;16.50;74.10
11836;DHT22;5977;51.972;7.640;2024-02-23T19:38:06;16.40;74.20
11836;DHT22;5977;51.972;7.640;2024-02-23T19:40:34;16.40;74.50
11836;DHT22;5977;51.972;7.640;2024-02-23T19:43:03;16.50;74.00
11836;DHT22;5977;51.972;7.640;2024-02-23T19:45:31;16.60;73.60
11836;DHT22;5977;51.972;7.640;2024-02-23T19:47:59;16.50;73.30
11836;DHT22;5977;51.972;7.640;2024-02-23T19:50:27;16.50;73.30
11836;DHT22;5977;51.972;7.640;2024-02-23T19:52:55;16.50;73.60
11836;DHT22;5977;51.972;7.640;2024-02-23T19:55:23;16.40;73.20
11836;DHT22;5977;51.972;7.640;2024-02-23T19:57:51;16.50;74.10
11836;DHT22;5977;51.972;7.640;2024-02-23T20:00:22;16.40;73.30
11836;DHT22;5977;51.972;7.640;2024-02-23T20:02:50;16.40;73.80
11836;DHT22;5977;51.972;7.640;2024-02-23T20:05:22;16.40;74.00
11836;DHT22;5977;51.972;7.640;2024-02-23T20:07:52;16.40;73.50
11836;DHT22;5977;51.972;7.640;2024-02-23T20:10:21;16.50;73.80
11836;DHT22;5977;51.972;7.640;2024-02-23T20:12:49;16.40;73.70
11836;DHT22;5977;51.972;7.640;2024-02-23T20:15:17;16.50;73.40
11836;DHT22;5977;51.972;7.640;2024-02-23T20:17:47;16.50;73.00
11836;DHT22;5977;51.972;7.640;2024-02-23T20:20:16;16.50;72.60
11836;DHT22;5977;51.972;7.640;2024-02-23T20:22:44;16.50;72.70
11836;DHT22;5977;51.972;7.640;2024-02-23T20:25:12;16.50;71.80
11836;DHT22;5977;51.972;7.640;2024-02-23T20:27:40;16.50;71.90
11836;DHT22;5977;51.972;7.640;2024-02-23T20:30:09;16.40;71.80
11836;DHT22;5977;51.972;7.640;2024-02-23T20:32:37;16.50;72.60
11836;DHT22;5977;51.972;7.640;2024-02-23T20:35:07;16.60;71.40
11836;DHT22;5977;51.972;7.640;2024-02-23T20:37:36;16.40;70.90
11836;DHT22;5977;51.972;7.640;2024-02-23T20:40:05;16.30;71.30
11836;DHT22;5977;51.972;7.640;2024-02-23T20:42:35;16.30;70.70
11836;DHT22;5977;51.972;7.640;2024-02-23T20:45:03;16.50;71.50
11836;DHT22;5977;51.972;7.640;2024-02-23T20:47:32;16.40;70.70
11836;DHT22;5977;51.972;7.640;2024-02-23T20:49:59;16.50;70.70
11836;DHT22;5977;51.972;7.640;2024-02-23T20:52:29;16.60;70.70
11836;DHT22;5977;51.972;7.640;2024-02-23T20:54:57;16.40;70.10
11836;DHT22;5977;51.972;7.640;2024-02-23T20:57:26;16.20;69.70
11836;DHT22;5977;51.972;7.640;2024-02-23T20:59:54;16.40;71.10
11836;DHT22;5977;51.972;7.640;2024-02-23T21:02:22;16.30;70.60
11836;DHT22;5977;51.972;7.640;2024-02-23T21:04:50;16.50;71.60
11836;DHT22;5977;51.972;7.640;2024-02-23T21:07:20;16.50;70.50
11836;DHT22;5977;51.972;7.640;2024-02-23T21:09:49;16.40;70.20
11836;DHT22;5977;51.972;7.640;2024-02-23T21:12:17;16.50;71.00
11836;DHT22;5977;51.972;7.640;2024-02-23T21:14:45;16.40;70.00
11836;DHT22;5977;51.972;7.640;2024-02-23T21:17:15;16.30;70.70
11836;DHT22;5977;51.972;7.640;2024-02-23T21:19:43;16.30;70.20
11836;DHT22;5977;51.972;7.640;2024-02-23T21:22:10;16.40;69.90
11836;DHT22;5977;51.972;7.640;2024-02-23T21:24:38;16.40;70.70
11836;DHT22;5977;51.972;7.640;2024-02-23T21:27:13;16.20;70.10
11836;DHT22;5977;51.972;7.640;2024-02-23T21:29:41;16.20;70.40
11836;DHT22;5977;51.972;7.640;2024-02-23T21:32:10;16.10;70.10
11836;DHT22;5977;51.972;7.640;2024-02-23T21:34:39;16.10;70.30
11836;DHT22;5977;51.972;7.640;2024-02-23T21:37:07;16.30;70.30
11836;DHT22;5977;51.972;7.640;2024-02-23T21:39:35;16.20;69.60
11836;DHT22;5977;51.972;7.640;2024-02-23T21:42:03;16.00;69.50
11836;DHT22;5977;51.972;7.640;2024-02-23T21:44:32;16.10;69.80
11836;DHT22;5977;51.972;7.640;2024-02-23T21:47:01;16.00;69.60
11836;DHT22;5977;51.972;7.640;2024-02-23T21:49:29;16.00;70.20
11836;DHT22;5977;51.972;7.640;2024-02-23T21:51:57;16.10;69.70
11836;DHT22;5977;51.972;7.640;2024-02-23T21:54:29;16.10;70.90
11836;DHT22;5977;51.972;7.640;2024-02-23T21:56:57;16.10;70.00
11836;DHT22;5977;51.972;7.640;2024-02-23T21:59:27;16.10;69.80
11836;DHT22;5977;51.972;7.640;2024-02-23T22:01:57;16.10;70.00
11836;DHT22;5977;51.972;7.640;2024-02-23T22:04:31;15.90;69.80
11836;DHT22;5977;51.972;7.640;2024-02-23T22:06:59;15.80;70.20
11836;DHT22;5977;51.972;7.640;2024-02-23T22:09:27;15.80;70.00
11836;DHT22;5977;51.972;7.640;2024-02-23T22:11:55;15.90;70.50
11836;DHT22;5977;51.972;7.640;2024-02-23T22:14:23;16.10;70.90
11836;DHT22;5977;51.972;7.640;2024-02-23T22:16:51;16.10;70.10
11836;DHT22;5977;51.972;7.640;2024-02-23T22:19:20;16.00;69.50
11836;DHT22;5977;51.972;7.640;2024-02-23T22:21:48;16.20;70.70
11836;DHT22;5977;51.972;7.640;2024-02-23T22:24:16;16.10;69.80
11836;DHT22;5977;51.972;7.640;2024-02-23T22:26:44;16.00;70.20